sensor_id;sensor_type;location;lat;lon;timestamp;P1;durP1;ratioP1;P2;durP2;ratioP2
52170;SDS011;38689;47.552;18.820;2023-11-19T00:02:23;6.60;;;3.10;;
52170;SDS011;38689;47.552;18.820;2023-11-19T00:04:49;8.23;;;3.80;;
52170;SDS011;38689;47.552;18.820;2023-11-19T00:07:15;8.15;;;3.55;;
52170;SDS011;38689;47.552;18.820;2023-11-19T00:09:41;7.90;;;3.50;;
52170;SDS011;38689;47.552;18.820;2023-11-19T00:12:09;7.90;;;3.30;;
52170;SDS011;38689;47.552;18.820;2023-11-19T00:14:35;6.70;;;3.33;;
52170;SDS011;38689;47.552;18.820;2023-11-19T00:17:01;7.53;;;3.28;;
52170;SDS011;38689;47.552;18.820;2023-11-19T00:19:27;7.87;;;3.25;;
52170;SDS011;38689;47.552;18.820;2023-11-19T00:21:53;7.47;;;3.42;;
52170;SDS011;38689;47.552;18.820;2023-11-19T00:24:19;9.00;;;3.80;;
52170;SDS011;38689;47.552;18.820;2023-11-19T00:26:46;7.25;;;3.30;;
52170;SDS011;38689;47.552;18.820;2023-11-19T00:29:12;6.50;;;3.20;;
52170;SDS011;38689;47.552;18.820;2023-11-19T00:31:40;8.38;;;3.83;;
52170;SDS011;38689;47.552;18.820;2023-11-19T00:34:06;9.55;;;3.67;;
52170;SDS011;38689;47.552;18.820;2023-11-19T00:36:32;6.93;;;3.35;;
52170;SDS011;38689;47.552;18.820;2023-11-19T00:38:58;8.57;;;3.33;;
52170;SDS011;38689;47.552;18.820;2023-11-19T00:41:25;7.87;;;3.30;;
52170;SDS011;38689;47.552;18.820;2023-11-19T00:43:51;6.80;;;3.30;;
52170;SDS011;38689;47.552;18.820;2023-11-19T00:46:17;7.62;;;3.62;;
52170;SDS011;38689;47.552;18.820;2023-11-19T00:48:43;6.70;;;2.97;;
52170;SDS011;38689;47.552;18.820;2023-11-19T00:51:11;9.43;;;3.28;;
52170;SDS011;38689;47.552;18.820;2023-11-19T00:53:37;7.00;;;3.15;;
52170;SDS011;38689;47.552;18.820;2023-11-19T00:56:03;6.87;;;3.28;;
52170;SDS011;38689;47.552;18.820;2023-11-19T00:58:29;6.53;;;3.25;;
52170;SDS011;38689;47.552;18.820;2023-11-19T01:00:56;8.02;;;3.62;;
52170;SDS011;38689;47.552;18.820;2023-11-19T01:03:22;7.50;;;3.20;;
52170;SDS011;38689;47.552;18.820;2023-11-19T01:05:48;9.18;;;3.65;;
52170;SDS011;38689;47.552;18.820;2023-11-19T01:08:14;9.38;;;3.75;;
52170;SDS011;38689;47.552;18.820;2023-11-19T01:10:41;7.62;;;3.60;;
52170;SDS011;38689;47.552;18.820;2023-11-19T01:13:07;7.62;;;3.50;;
52170;SDS011;38689;47.552;18.820;2023-11-19T01:15:34;8.48;;;3.90;;
52170;SDS011;38689;47.552;18.820;2023-11-19T01:18:00;6.87;;;3.17;;
52170;SDS011;38689;47.552;18.820;2023-11-19T01:20:30;7.57;;;3.42;;
52170;SDS011;38689;47.552;18.820;2023-11-19T01:22:56;6.57;;;2.90;;
52170;SDS011;38689;47.552;18.820;2023-11-19T01:25:22;6.32;;;3.10;;
52170;SDS011;38689;47.552;18.820;2023-11-19T01:27:48;6.37;;;3.03;;
52170;SDS011;38689;47.552;18.820;2023-11-19T01:30:15;6.72;;;2.55;;
52170;SDS011;38689;47.552;18.820;2023-11-19T01:32:43;6.28;;;2.85;;
52170;SDS011;38689;47.552;18.820;2023-11-19T01:35:09;8.80;;;3.53;;
52170;SDS011;38689;47.552;18.820;2023-11-19T01:37:35;7.93;;;4.30;;
52170;SDS011;38689;47.552;18.820;2023-11-19T01:40:01;6.57;;;3.15;;
52170;SDS011;38689;47.552;18.820;2023-11-19T01:42:30;7.40;;;2.87;;
52170;SDS011;38689;47.552;18.820;2023-11-19T01:45:02;7.97;;;3.10;;
52170;SDS011;38689;47.552;18.820;2023-11-19T01:47:28;7.93;;;3.42;;
52170;SDS011;38689;47.552;18.820;2023-11-19T01:49:56;7.35;;;2.85;;
52170;SDS011;38689;47.552;18.820;2023-11-19T01:52:22;8.88;;;3.05;;
52170;SDS011;38689;47.552;18.820;2023-11-19T01:54:49;6.85;;;2.75;;
52170;SDS011;38689;47.552;18.820;2023-11-19T01:57:16;5.47;;;2.65;;
52170;SDS011;38689;47.552;18.820;2023-11-19T01:59:42;6.12;;;2.90;;
52170;SDS011;38689;47.552;18.820;2023-11-19T02:02:09;6.22;;;2.70;;
52170;SDS011;38689;47.552;18.820;2023-11-19T02:04:35;7.07;;;3.10;;
52170;SDS011;38689;47.552;18.820;2023-11-19T02:07:01;6.65;;;2.90;;
52170;SDS011;38689;47.552;18.820;2023-11-19T02:09:27;5.22;;;2.30;;
52170;SDS011;38689;47.552;18.820;2023-11-19T02:11:53;5.68;;;2.70;;
52170;SDS011;38689;47.552;18.820;2023-11-19T02:14:20;5.05;;;2.75;;
52170;SDS011;38689;47.552;18.820;2023-11-19T02:16:49;6.50;;;2.58;;
52170;SDS011;38689;47.552;18.820;2023-11-19T02:19:15;10.98;;;3.40;;
52170;SDS011;38689;47.552;18.820;2023-11-19T02:21:41;5.18;;;2.35;;
52170;SDS011;38689;47.552;18.820;2023-11-19T02:24:10;6.30;;;3.12;;
52170;SDS011;38689;47.552;18.820;2023-11-19T02:29:13;8.75;;;3.20;;
52170;SDS011;38689;47.552;18.820;2023-11-19T02:31:39;8.10;;;2.97;;
52170;SDS011;38689;47.552;18.820;2023-11-19T02:34:05;4.65;;;2.40;;
52170;SDS011;38689;47.552;18.820;2023-11-19T02:36:31;8.00;;;3.20;;
52170;SDS011;38689;47.552;18.820;2023-11-19T02:38:58;6.18;;;2.85;;
52170;SDS011;38689;47.552;18.820;2023-11-19T02:41:25;5.68;;;2.67;;
52170;SDS011;38689;47.552;18.820;2023-11-19T02:43:51;5.30;;;2.70;;
52170;SDS011;38689;47.552;18.820;2023-11-19T02:46:17;6.20;;;3.05;;
52170;SDS011;38689;47.552;18.820;2023-11-19T02:48:43;6.28;;;2.55;;
52170;SDS011;38689;47.552;18.820;2023-11-19T02:51:11;5.82;;;2.97;;
52170;SDS011;38689;47.552;18.820;2023-11-19T02:53:37;5.28;;;2.40;;
52170;SDS011;38689;47.552;18.820;2023-11-19T02:56:05;5.05;;;2.67;;
52170;SDS011;38689;47.552;18.820;2023-11-19T02:58:37;12.82;;;3.30;;
52170;SDS011;38689;47.552;18.820;2023-11-19T03:01:04;5.68;;;2.75;;
52170;SDS011;38689;47.552;18.820;2023-11-19T03:03:38;6.72;;;2.72;;
52170;SDS011;38689;47.552;18.820;2023-11-19T03:06:06;6.15;;;2.60;;
52170;SDS011;38689;47.552;18.820;2023-11-19T03:08:34;5.70;;;2.70;;
52170;SDS011;38689;47.552;18.820;2023-11-19T03:11:01;5.78;;;2.90;;
52170;SDS011;38689;47.552;18.820;2023-11-19T03:13:27;6.07;;;2.72;;
52170;SDS011;38689;47.552;18.820;2023-11-19T03:15:53;5.78;;;3.05;;
52170;SDS011;38689;47.552;18.820;2023-11-19T03:18:20;6.55;;;2.92;;
52170;SDS011;38689;47.552;18.820;2023-11-19T03:20:47;5.43;;;3.10;;
52170;SDS011;38689;47.552;18.820;2023-11-19T03:23:13;7.82;;;3.05;;
52170;SDS011;38689;47.552;18.820;2023-11-19T03:25:39;8.82;;;3.28;;
52170;SDS011;38689;47.552;18.820;2023-11-19T03:28:05;6.62;;;2.85;;
52170;SDS011;38689;47.552;18.820;2023-11-19T03:30:32;8.45;;;2.87;;
52170;SDS011;38689;47.552;18.820;2023-11-19T03:32:58;5.22;;;2.58;;
52170;SDS011;38689;47.552;18.820;2023-11-19T03:35:25;5.62;;;2.70;;
52170;SDS011;38689;47.552;18.820;2023-11-19T03:37:51;6.00;;;2.58;;
52170;SDS011;38689;47.552;18.820;2023-11-19T03:40:18;7.37;;;3.25;;
52170;SDS011;38689;47.552;18.820;2023-11-19T03:42:45;6.97;;;3.12;;
52170;SDS011;38689;47.552;18.820;2023-11-19T03:45:11;6.95;;;3.00;;
52170;SDS011;38689;47.552;18.820;2023-11-19T03:47:37;8.60;;;3.12;;
52170;SDS011;38689;47.552;18.820;2023-11-19T03:50:05;7.12;;;3.17;;
52170;SDS011;38689;47.552;18.820;2023-11-19T03:52:34;7.75;;;3.28;;
52170;SDS011;38689;47.552;18.820;2023-11-19T03:55:01;6.93;;;3.25;;
52170;SDS011;38689;47.552;18.820;2023-11-19T03:57:28;7.47;;;2.97;;
52170;SDS011;38689;47.552;18.820;2023-11-19T03:59:54;6.82;;;3.08;;
52170;SDS011;38689;47.552;18.820;2023-11-19T04:02:21;7.50;;;3.28;;
52170;SDS011;38689;47.552;18.820;2023-11-19T04:04:47;6.60;;;3.55;;
52170;SDS011;38689;47.552;18.820;2023-11-19T04:07:13;6.78;;;3.03;;
52170;SDS011;38689;47.552;18.820;2023-11-19T04:09:39;7.90;;;3.37;;
52170;SDS011;38689;47.552;18.820;2023-11-19T04:12:05;8.50;;;3.05;;
52170;SDS011;38689;47.552;18.820;2023-11-19T04:14:32;7.43;;;3.33;;
52170;SDS011;38689;47.552;18.820;2023-11-19T04:16:58;7.72;;;3.20;;
52170;SDS011;38689;47.552;18.820;2023-11-19T04:19:24;12.40;;;2.90;;
52170;SDS011;38689;47.552;18.820;2023-11-19T04:21:50;7.18;;;2.85;;
52170;SDS011;38689;47.552;18.820;2023-11-19T04:24:16;5.97;;;2.70;;
52170;SDS011;38689;47.552;18.820;2023-11-19T04:26:42;6.20;;;3.15;;
52170;SDS011;38689;47.552;18.820;2023-11-19T04:29:09;6.72;;;2.85;;
52170;SDS011;38689;47.552;18.820;2023-11-19T04:31:36;6.62;;;3.08;;
52170;SDS011;38689;47.552;18.820;2023-11-19T04:34:04;4.70;;;2.67;;
52170;SDS011;38689;47.552;18.820;2023-11-19T04:36:30;6.25;;;2.85;;
52170;SDS011;38689;47.552;18.820;2023-11-19T04:38:56;10.82;;;2.80;;
52170;SDS011;38689;47.552;18.820;2023-11-19T04:41:22;6.07;;;2.92;;
52170;SDS011;38689;47.552;18.820;2023-11-19T04:43:49;7.60;;;2.97;;
52170;SDS011;38689;47.552;18.820;2023-11-19T04:46:15;6.20;;;2.80;;
52170;SDS011;38689;47.552;18.820;2023-11-19T04:48:41;6.72;;;2.92;;
52170;SDS011;38689;47.552;18.820;2023-11-19T04:51:07;7.32;;;3.10;;
52170;SDS011;38689;47.552;18.820;2023-11-19T04:53:35;5.57;;;3.22;;
52170;SDS011;38689;47.552;18.820;2023-11-19T04:56:01;6.68;;;3.10;;
52170;SDS011;38689;47.552;18.820;2023-11-19T04:58:28;6.32;;;3.47;;
52170;SDS011;38689;47.552;18.820;2023-11-19T05:00:54;5.95;;;2.80;;
52170;SDS011;38689;47.552;18.820;2023-11-19T05:03:22;7.53;;;3.20;;
52170;SDS011;38689;47.552;18.820;2023-11-19T05:05:48;6.40;;;2.90;;
52170;SDS011;38689;47.552;18.820;2023-11-19T05:08:14;8.15;;;3.42;;
52170;SDS011;38689;47.552;18.820;2023-11-19T05:10:40;8.45;;;3.58;;
52170;SDS011;38689;47.552;18.820;2023-11-19T05:13:06;9.88;;;3.37;;
52170;SDS011;38689;47.552;18.820;2023-11-19T05:15:32;7.40;;;3.47;;
52170;SDS011;38689;47.552;18.820;2023-11-19T05:17:59;6.03;;;3.47;;
52170;SDS011;38689;47.552;18.820;2023-11-19T05:20:24;6.95;;;3.33;;
52170;SDS011;38689;47.552;18.820;2023-11-19T05:22:50;8.07;;;3.35;;
52170;SDS011;38689;47.552;18.820;2023-11-19T05:25:18;6.87;;;3.45;;
52170;SDS011;38689;47.552;18.820;2023-11-19T05:27:45;5.90;;;3.00;;
52170;SDS011;38689;47.552;18.820;2023-11-19T05:30:11;6.03;;;3.42;;
52170;SDS011;38689;47.552;18.820;2023-11-19T05:32:37;7.72;;;3.55;;
52170;SDS011;38689;47.552;18.820;2023-11-19T05:35:03;9.50;;;3.85;;
52170;SDS011;38689;47.552;18.820;2023-11-19T05:37:30;8.18;;;3.55;;
52170;SDS011;38689;47.552;18.820;2023-11-19T05:39:56;7.90;;;3.35;;
52170;SDS011;38689;47.552;18.820;2023-11-19T05:42:23;6.95;;;3.50;;
52170;SDS011;38689;47.552;18.820;2023-11-19T05:44:49;11.07;;;3.65;;
52170;SDS011;38689;47.552;18.820;2023-11-19T05:47:15;8.52;;;3.80;;
52170;SDS011;38689;47.552;18.820;2023-11-19T05:49:42;7.40;;;3.28;;
52170;SDS011;38689;47.552;18.820;2023-11-19T05:52:08;6.62;;;2.67;;
52170;SDS011;38689;47.552;18.820;2023-11-19T05:54:35;6.78;;;3.42;;
52170;SDS011;38689;47.552;18.820;2023-11-19T05:57:06;7.32;;;3.42;;
52170;SDS011;38689;47.552;18.820;2023-11-19T05:59:35;6.87;;;2.60;;
52170;SDS011;38689;47.552;18.820;2023-11-19T06:02:02;8.85;;;3.90;;
52170;SDS011;38689;47.552;18.820;2023-11-19T06:04:28;6.65;;;3.10;;
52170;SDS011;38689;47.552;18.820;2023-11-19T06:06:54;6.37;;;3.22;;
52170;SDS011;38689;47.552;18.820;2023-11-19T06:09:21;9.38;;;3.90;;
52170;SDS011;38689;47.552;18.820;2023-11-19T06:11:49;6.78;;;3.25;;
52170;SDS011;38689;47.552;18.820;2023-11-19T06:14:16;8.07;;;3.87;;
52170;SDS011;38689;47.552;18.820;2023-11-19T06:16:42;7.90;;;3.45;;
52170;SDS011;38689;47.552;18.820;2023-11-19T06:19:08;8.30;;;3.25;;
52170;SDS011;38689;47.552;18.820;2023-11-19T06:21:36;8.05;;;3.58;;
52170;SDS011;38689;47.552;18.820;2023-11-19T06:24:02;8.45;;;3.62;;
52170;SDS011;38689;47.552;18.820;2023-11-19T06:26:29;7.20;;;3.78;;
52170;SDS011;38689;47.552;18.820;2023-11-19T06:28:54;7.22;;;3.62;;
52170;SDS011;38689;47.552;18.820;2023-11-19T06:31:20;7.82;;;3.67;;
52170;SDS011;38689;47.552;18.820;2023-11-19T06:33:47;8.70;;;4.20;;
52170;SDS011;38689;47.552;18.820;2023-11-19T06:36:16;9.80;;;4.00;;
52170;SDS011;38689;47.552;18.820;2023-11-19T06:38:42;8.52;;;3.67;;
52170;SDS011;38689;47.552;18.820;2023-11-19T06:41:08;8.30;;;3.72;;
52170;SDS011;38689;47.552;18.820;2023-11-19T06:43:35;10.85;;;4.40;;
52170;SDS011;38689;47.552;18.820;2023-11-19T06:46:02;12.90;;;4.80;;
52170;SDS011;38689;47.552;18.820;2023-11-19T06:48:33;13.75;;;5.55;;
52170;SDS011;38689;47.552;18.820;2023-11-19T06:50:59;13.18;;;5.68;;
52170;SDS011;38689;47.552;18.820;2023-11-19T06:53:25;15.23;;;5.97;;
52170;SDS011;38689;47.552;18.820;2023-11-19T06:55:53;13.40;;;5.80;;
52170;SDS011;38689;47.552;18.820;2023-11-19T06:58:20;13.38;;;5.50;;
52170;SDS011;38689;47.552;18.820;2023-11-19T07:00:46;13.40;;;5.68;;
52170;SDS011;38689;47.552;18.820;2023-11-19T07:03:14;14.13;;;5.43;;
52170;SDS011;38689;47.552;18.820;2023-11-19T07:05:40;12.30;;;5.03;;
52170;SDS011;38689;47.552;18.820;2023-11-19T07:08:06;10.05;;;4.00;;
52170;SDS011;38689;47.552;18.820;2023-11-19T07:10:35;13.43;;;4.70;;
52170;SDS011;38689;47.552;18.820;2023-11-19T07:13:01;11.43;;;4.78;;
52170;SDS011;38689;47.552;18.820;2023-11-19T07:15:31;15.18;;;5.68;;
52170;SDS011;38689;47.552;18.820;2023-11-19T07:17:58;13.93;;;5.70;;
52170;SDS011;38689;47.552;18.820;2023-11-19T07:20:25;12.32;;;5.60;;
52170;SDS011;38689;47.552;18.820;2023-11-19T07:22:52;9.80;;;4.68;;
52170;SDS011;38689;47.552;18.820;2023-11-19T07:25:18;12.77;;;4.47;;
52170;SDS011;38689;47.552;18.820;2023-11-19T07:27:44;10.05;;;4.35;;
52170;SDS011;38689;47.552;18.820;2023-11-19T07:30:10;7.97;;;4.07;;
52170;SDS011;38689;47.552;18.820;2023-11-19T07:32:36;13.32;;;4.87;;
52170;SDS011;38689;47.552;18.820;2023-11-19T07:35:04;11.50;;;5.00;;
52170;SDS011;38689;47.552;18.820;2023-11-19T07:37:31;10.00;;;4.57;;
52170;SDS011;38689;47.552;18.820;2023-11-19T07:39:57;12.82;;;4.65;;
52170;SDS011;38689;47.552;18.820;2023-11-19T07:42:24;6.70;;;3.53;;
52170;SDS011;38689;47.552;18.820;2023-11-19T07:44:50;9.70;;;3.87;;
52170;SDS011;38689;47.552;18.820;2023-11-19T07:47:16;12.30;;;4.70;;
52170;SDS011;38689;47.552;18.820;2023-11-19T07:49:42;11.55;;;5.20;;
52170;SDS011;38689;47.552;18.820;2023-11-19T07:52:09;9.05;;;3.95;;
52170;SDS011;38689;47.552;18.820;2023-11-19T07:54:35;10.55;;;4.28;;
52170;SDS011;38689;47.552;18.820;2023-11-19T07:57:01;9.38;;;4.10;;
52170;SDS011;38689;47.552;18.820;2023-11-19T07:59:27;10.38;;;4.55;;
52170;SDS011;38689;47.552;18.820;2023-11-19T08:01:53;10.88;;;5.10;;
52170;SDS011;38689;47.552;18.820;2023-11-19T08:04:19;10.98;;;4.70;;
52170;SDS011;38689;47.552;18.820;2023-11-19T08:06:45;10.45;;;3.80;;
52170;SDS011;38689;47.552;18.820;2023-11-19T08:09:11;11.00;;;5.25;;
52170;SDS011;38689;47.552;18.820;2023-11-19T08:11:40;8.27;;;3.35;;
52170;SDS011;38689;47.552;18.820;2023-11-19T08:14:08;6.28;;;3.10;;
52170;SDS011;38689;47.552;18.820;2023-11-19T08:16:35;10.45;;;3.45;;
52170;SDS011;38689;47.552;18.820;2023-11-19T08:19:02;8.45;;;3.67;;
52170;SDS011;38689;47.552;18.820;2023-11-19T08:21:28;8.07;;;3.22;;
52170;SDS011;38689;47.552;18.820;2023-11-19T08:23:54;6.85;;;3.72;;
52170;SDS011;38689;47.552;18.820;2023-11-19T08:26:20;9.55;;;3.87;;
52170;SDS011;38689;47.552;18.820;2023-11-19T08:28:46;7.82;;;3.65;;
52170;SDS011;38689;47.552;18.820;2023-11-19T08:31:13;9.27;;;4.22;;
52170;SDS011;38689;47.552;18.820;2023-11-19T08:33:39;13.25;;;5.70;;
52170;SDS011;38689;47.552;18.820;2023-11-19T08:36:05;13.13;;;5.50;;
52170;SDS011;38689;47.552;18.820;2023-11-19T08:38:31;12.32;;;5.93;;
52170;SDS011;38689;47.552;18.820;2023-11-19T08:40:57;14.07;;;6.37;;
52170;SDS011;38689;47.552;18.820;2023-11-19T08:43:26;15.27;;;5.50;;
52170;SDS011;38689;47.552;18.820;2023-11-19T08:45:52;13.15;;;5.45;;
52170;SDS011;38689;47.552;18.820;2023-11-19T08:48:19;9.65;;;4.80;;
52170;SDS011;38689;47.552;18.820;2023-11-19T08:50:45;11.30;;;4.87;;
52170;SDS011;38689;47.552;18.820;2023-11-19T08:53:11;17.10;;;6.47;;
52170;SDS011;38689;47.552;18.820;2023-11-19T08:55:37;14.15;;;5.32;;
52170;SDS011;38689;47.552;18.820;2023-11-19T08:58:03;15.10;;;5.65;;
52170;SDS011;38689;47.552;18.820;2023-11-19T09:00:29;12.63;;;5.50;;
52170;SDS011;38689;47.552;18.820;2023-11-19T09:02:55;11.10;;;4.78;;
52170;SDS011;38689;47.552;18.820;2023-11-19T09:05:23;13.70;;;5.30;;
52170;SDS011;38689;47.552;18.820;2023-11-19T09:07:49;14.32;;;6.37;;
52170;SDS011;38689;47.552;18.820;2023-11-19T09:10:15;12.30;;;5.15;;
52170;SDS011;38689;47.552;18.820;2023-11-19T09:12:41;11.20;;;5.07;;
52170;SDS011;38689;47.552;18.820;2023-11-19T09:15:07;11.23;;;5.37;;
52170;SDS011;38689;47.552;18.820;2023-11-19T09:17:36;11.48;;;4.90;;
52170;SDS011;38689;47.552;18.820;2023-11-19T09:20:02;12.70;;;5.62;;
52170;SDS011;38689;47.552;18.820;2023-11-19T09:22:28;12.80;;;5.60;;
52170;SDS011;38689;47.552;18.820;2023-11-19T09:24:54;9.13;;;4.65;;
52170;SDS011;38689;47.552;18.820;2023-11-19T09:27:20;12.70;;;5.65;;
52170;SDS011;38689;47.552;18.820;2023-11-19T09:29:46;9.60;;;4.60;;
52170;SDS011;38689;47.552;18.820;2023-11-19T09:32:14;11.93;;;4.85;;
52170;SDS011;38689;47.552;18.820;2023-11-19T09:34:40;10.02;;;4.18;;
52170;SDS011;38689;47.552;18.820;2023-11-19T09:37:05;8.38;;;4.10;;
52170;SDS011;38689;47.552;18.820;2023-11-19T09:39:31;10.55;;;4.72;;
52170;SDS011;38689;47.552;18.820;2023-11-19T09:41:59;12.68;;;4.37;;
52170;SDS011;38689;47.552;18.820;2023-11-19T09:44:25;10.05;;;4.32;;
52170;SDS011;38689;47.552;18.820;2023-11-19T09:46:52;11.18;;;4.93;;
52170;SDS011;38689;47.552;18.820;2023-11-19T09:49:19;9.35;;;4.68;;
52170;SDS011;38689;47.552;18.820;2023-11-19T09:51:47;10.25;;;4.12;;
52170;SDS011;38689;47.552;18.820;2023-11-19T09:54:13;10.48;;;4.05;;
52170;SDS011;38689;47.552;18.820;2023-11-19T09:56:39;10.38;;;4.43;;
52170;SDS011;38689;47.552;18.820;2023-11-19T09:59:06;9.43;;;4.75;;
52170;SDS011;38689;47.552;18.820;2023-11-19T10:01:32;8.30;;;3.87;;
52170;SDS011;38689;47.552;18.820;2023-11-19T10:03:58;7.87;;;3.78;;
52170;SDS011;38689;47.552;18.820;2023-11-19T10:06:24;9.13;;;3.85;;
52170;SDS011;38689;47.552;18.820;2023-11-19T10:08:52;8.35;;;4.07;;
52170;SDS011;38689;47.552;18.820;2023-11-19T10:11:18;10.68;;;4.78;;
52170;SDS011;38689;47.552;18.820;2023-11-19T10:13:44;10.27;;;4.30;;
52170;SDS011;38689;47.552;18.820;2023-11-19T10:16:13;8.60;;;3.97;;
52170;SDS011;38689;47.552;18.820;2023-11-19T10:18:44;9.32;;;4.20;;
52170;SDS011;38689;47.552;18.820;2023-11-19T10:21:11;9.52;;;4.28;;
52170;SDS011;38689;47.552;18.820;2023-11-19T10:23:47;10.23;;;4.68;;
52170;SDS011;38689;47.552;18.820;2023-11-19T10:26:14;7.80;;;4.10;;
52170;SDS011;38689;47.552;18.820;2023-11-19T10:28:40;6.60;;;3.60;;
52170;SDS011;38689;47.552;18.820;2023-11-19T10:31:18;9.27;;;4.45;;
52170;SDS011;38689;47.552;18.820;2023-11-19T10:33:45;11.68;;;5.53;;
52170;SDS011;38689;47.552;18.820;2023-11-19T10:36:11;14.65;;;7.55;;
52170;SDS011;38689;47.552;18.820;2023-11-19T10:38:38;10.77;;;4.53;;
52170;SDS011;38689;47.552;18.820;2023-11-19T10:41:04;9.73;;;4.65;;
52170;SDS011;38689;47.552;18.820;2023-11-19T10:43:31;12.88;;;5.68;;
52170;SDS011;38689;47.552;18.820;2023-11-19T10:46:08;9.75;;;4.78;;
52170;SDS011;38689;47.552;18.820;2023-11-19T10:48:35;7.00;;;3.62;;
52170;SDS011;38689;47.552;18.820;2023-11-19T10:51:01;7.57;;;3.60;;
52170;SDS011;38689;47.552;18.820;2023-11-19T10:53:31;9.40;;;4.10;;
52170;SDS011;38689;47.552;18.820;2023-11-19T10:55:59;7.50;;;3.78;;
52170;SDS011;38689;47.552;18.820;2023-11-19T10:58:27;8.55;;;4.03;;
52170;SDS011;38689;47.552;18.820;2023-11-19T11:00:57;6.03;;;3.22;;
52170;SDS011;38689;47.552;18.820;2023-11-19T11:03:29;7.07;;;3.42;;
52170;SDS011;38689;47.552;18.820;2023-11-19T11:06:01;7.07;;;3.58;;
52170;SDS011;38689;47.552;18.820;2023-11-19T11:08:29;7.35;;;3.67;;
52170;SDS011;38689;47.552;18.820;2023-11-19T11:10:56;8.75;;;3.80;;
52170;SDS011;38689;47.552;18.820;2023-11-19T11:13:24;6.40;;;3.15;;
52170;SDS011;38689;47.552;18.820;2023-11-19T11:15:50;8.23;;;3.80;;
52170;SDS011;38689;47.552;18.820;2023-11-19T11:18:17;7.07;;;3.50;;
52170;SDS011;38689;47.552;18.820;2023-11-19T11:20:46;8.02;;;3.33;;
52170;SDS011;38689;47.552;18.820;2023-11-19T11:23:25;6.87;;;3.40;;
52170;SDS011;38689;47.552;18.820;2023-11-19T11:29:24;6.80;;;3.72;;
52170;SDS011;38689;47.552;18.820;2023-11-19T11:32:08;6.97;;;2.90;;
52170;SDS011;38689;47.552;18.820;2023-11-19T11:37:27;6.57;;;2.95;;
52170;SDS011;38689;47.552;18.820;2023-11-19T11:40:03;7.30;;;3.30;;
52170;SDS011;38689;47.552;18.820;2023-11-19T11:42:38;6.82;;;2.95;;
52170;SDS011;38689;47.552;18.820;2023-11-19T11:45:08;4.65;;;2.78;;
52170;SDS011;38689;47.552;18.820;2023-11-19T11:50:13;6.30;;;3.00;;
52170;SDS011;38689;47.552;18.820;2023-11-19T11:57:52;8.35;;;3.25;;
52170;SDS011;38689;47.552;18.820;2023-11-19T12:00:21;5.10;;;3.20;;
52170;SDS011;38689;47.552;18.820;2023-11-19T12:03:00;9.25;;;3.55;;
52170;SDS011;38689;47.552;18.820;2023-11-19T12:05:27;6.75;;;2.97;;
52170;SDS011;38689;47.552;18.820;2023-11-19T12:08:06;11.07;;;4.45;;
52170;SDS011;38689;47.552;18.820;2023-11-19T12:10:54;9.63;;;3.80;;
52170;SDS011;38689;47.552;18.820;2023-11-19T12:13:20;9.38;;;3.80;;
52170;SDS011;38689;47.552;18.820;2023-11-19T12:18:26;8.02;;;3.83;;
52170;SDS011;38689;47.552;18.820;2023-11-19T12:20:53;9.10;;;4.25;;
52170;SDS011;38689;47.552;18.820;2023-11-19T12:23:19;9.02;;;4.65;;
52170;SDS011;38689;47.552;18.820;2023-11-19T12:25:45;10.95;;;4.85;;
52170;SDS011;38689;47.552;18.820;2023-11-19T12:28:12;9.43;;;4.60;;
52170;SDS011;38689;47.552;18.820;2023-11-19T12:30:39;9.25;;;4.12;;
52170;SDS011;38689;47.552;18.820;2023-11-19T12:33:09;11.50;;;5.05;;
52170;SDS011;38689;47.552;18.820;2023-11-19T12:35:39;10.73;;;4.78;;
52170;SDS011;38689;47.552;18.820;2023-11-19T12:38:17;12.02;;;5.20;;
52170;SDS011;38689;47.552;18.820;2023-11-19T12:41:04;11.43;;;5.35;;
52170;SDS011;38689;47.552;18.820;2023-11-19T12:43:31;9.95;;;4.87;;
52170;SDS011;38689;47.552;18.820;2023-11-19T12:45:57;9.45;;;4.53;;
52170;SDS011;38689;47.552;18.820;2023-11-19T12:48:23;9.13;;;4.00;;
52170;SDS011;38689;47.552;18.820;2023-11-19T12:50:56;11.55;;;4.70;;
52170;SDS011;38689;47.552;18.820;2023-11-19T12:53:23;10.50;;;5.18;;
52170;SDS011;38689;47.552;18.820;2023-11-19T12:55:50;10.43;;;4.93;;
52170;SDS011;38689;47.552;18.820;2023-11-19T12:58:35;12.55;;;5.70;;
52170;SDS011;38689;47.552;18.820;2023-11-19T13:01:02;11.10;;;4.90;;
52170;SDS011;38689;47.552;18.820;2023-11-19T13:03:30;10.88;;;5.30;;
52170;SDS011;38689;47.552;18.820;2023-11-19T13:06:03;10.32;;;5.25;;
52170;SDS011;38689;47.552;18.820;2023-11-19T13:11:05;12.75;;;5.32;;
52170;SDS011;38689;47.552;18.820;2023-11-19T13:16:26;15.90;;;5.87;;
52170;SDS011;38689;47.552;18.820;2023-11-19T13:18:53;13.10;;;6.05;;
52170;SDS011;38689;47.552;18.820;2023-11-19T13:21:19;11.45;;;5.78;;
52170;SDS011;38689;47.552;18.820;2023-11-19T13:23:45;12.02;;;5.82;;
52170;SDS011;38689;47.552;18.820;2023-11-19T13:26:11;10.15;;;4.93;;
52170;SDS011;38689;47.552;18.820;2023-11-19T13:28:37;11.10;;;5.25;;
52170;SDS011;38689;47.552;18.820;2023-11-19T13:31:04;11.73;;;5.25;;
52170;SDS011;38689;47.552;18.820;2023-11-19T13:33:30;11.88;;;5.60;;
52170;SDS011;38689;47.552;18.820;2023-11-19T13:35:56;12.13;;;5.10;;
52170;SDS011;38689;47.552;18.820;2023-11-19T13:38:22;11.40;;;5.40;;
52170;SDS011;38689;47.552;18.820;2023-11-19T13:40:49;13.10;;;5.18;;
52170;SDS011;38689;47.552;18.820;2023-11-19T13:43:16;12.55;;;5.70;;
52170;SDS011;38689;47.552;18.820;2023-11-19T13:45:42;12.15;;;5.43;;
52170;SDS011;38689;47.552;18.820;2023-11-19T13:48:08;12.10;;;5.53;;
52170;SDS011;38689;47.552;18.820;2023-11-19T13:50:35;12.02;;;5.37;;
52170;SDS011;38689;47.552;18.820;2023-11-19T13:53:01;13.13;;;5.65;;
52170;SDS011;38689;47.552;18.820;2023-11-19T13:55:27;11.38;;;5.35;;
52170;SDS011;38689;47.552;18.820;2023-11-19T13:57:53;9.88;;;4.85;;
52170;SDS011;38689;47.552;18.820;2023-11-19T14:00:19;12.60;;;5.80;;
52170;SDS011;38689;47.552;18.820;2023-11-19T14:02:46;12.05;;;5.07;;
52170;SDS011;38689;47.552;18.820;2023-11-19T14:05:13;13.40;;;5.32;;
52170;SDS011;38689;47.552;18.820;2023-11-19T14:07:39;11.45;;;5.60;;
52170;SDS011;38689;47.552;18.820;2023-11-19T14:10:06;12.48;;;6.00;;
52170;SDS011;38689;47.552;18.820;2023-11-19T14:12:32;16.35;;;6.25;;
52170;SDS011;38689;47.552;18.820;2023-11-19T14:14:59;15.00;;;6.28;;
52170;SDS011;38689;47.552;18.820;2023-11-19T14:17:25;12.65;;;6.55;;
52170;SDS011;38689;47.552;18.820;2023-11-19T14:19:52;13.73;;;6.50;;
52170;SDS011;38689;47.552;18.820;2023-11-19T14:22:18;12.52;;;5.80;;
52170;SDS011;38689;47.552;18.820;2023-11-19T14:24:44;16.30;;;6.00;;
52170;SDS011;38689;47.552;18.820;2023-11-19T14:27:10;14.45;;;6.62;;
52170;SDS011;38689;47.552;18.820;2023-11-19T14:29:36;12.60;;;6.05;;
52170;SDS011;38689;47.552;18.820;2023-11-19T14:32:03;13.85;;;7.03;;
52170;SDS011;38689;47.552;18.820;2023-11-19T14:34:30;15.32;;;7.00;;
52170;SDS011;38689;47.552;18.820;2023-11-19T14:36:56;14.93;;;7.78;;
52170;SDS011;38689;47.552;18.820;2023-11-19T14:39:22;13.07;;;6.68;;
52170;SDS011;38689;47.552;18.820;2023-11-19T14:41:48;15.55;;;7.03;;
52170;SDS011;38689;47.552;18.820;2023-11-19T14:44:15;16.45;;;7.12;;
52170;SDS011;38689;47.552;18.820;2023-11-19T14:46:41;15.13;;;6.70;;
52170;SDS011;38689;47.552;18.820;2023-11-19T14:49:07;17.77;;;7.30;;
52170;SDS011;38689;47.552;18.820;2023-11-19T14:51:37;15.45;;;6.87;;
52170;SDS011;38689;47.552;18.820;2023-11-19T14:54:04;13.23;;;6.30;;
52170;SDS011;38689;47.552;18.820;2023-11-19T14:56:30;15.43;;;6.90;;